»·PEaware :: N7GL KMFR-KRDD

N7GL :: KMFR-KRDD

FLIGHT INFORMATION

Flight Status: Arrived
Operator: Privately registered:
United States
More flights under this callsign
Pilot: Georg L. (13308)
Aircraft: BEECH AIRCRAFT SUPER KING AIR 350
(B350)
More flights by this aircraft type
Origin: KMFR Rogue Valley Intl-Medford
United States
Destination: KRDD Redding Mun
United States
More flights between these airports :: More routes between these airports
Route: BRUTE7 GRENA WARSU
File this flight plan on PilotEdge
Remarks:
Altitude:
(Current/Filed)
15,000ft
Speed:
(Current/Filed)
300kts
Departed: 12-Nov-20 09:57 AM
Arrived: 12-Nov-20 10:30 AM
Distance/Time
Traveled:
115nm/0:33
Distance/Time
To Go:
Arrived

Flight Plot

Page will automatically refresh every two minutes.

Flight plan parsing failed; only flown route is shown


Map Options




Map Legend


Flown Route
Filed Route
Departure Airport
Arrival Airport
Navaid (VOR, NDB)
Fix

Horizontal Profiles

Position Reports

Time Latitude Longitude Heading Altitude Ground
Speed
12-Nov-20 09:30 42.371764 -122.875672 203 1318ft 0kts
12-Nov-20 09:31 42.371764 -122.875672 203 1318ft 0kts
12-Nov-20 09:32 42.371764 -122.875672 203 1318ft 0kts
12-Nov-20 09:33 42.371764 -122.875672 203 1318ft 0kts
12-Nov-20 09:34 42.371764 -122.875672 203 1318ft 0kts
12-Nov-20 09:35 42.371764 -122.875672 203 1318ft 0kts
12-Nov-20 09:36 42.371764 -122.875672 203 1318ft 0kts
12-Nov-20 09:37 42.371764 -122.875672 203 1318ft 0kts
12-Nov-20 09:38 42.371764 -122.875672 203 1318ft 0kts
12-Nov-20 09:39 42.371764 -122.875672 203 1318ft 0kts
12-Nov-20 09:40 42.371764 -122.875672 203 1318ft 0kts
12-Nov-20 09:41 42.371764 -122.875672 203 1318ft 0kts
12-Nov-20 09:42 42.371764 -122.875672 203 1318ft 0kts
12-Nov-20 09:43 42.371764 -122.875672 203 1318ft 0kts
12-Nov-20 09:44 42.371764 -122.875672 203 1318ft 0kts
12-Nov-20 09:45 42.371764 -122.875672 203 1318ft 0kts
12-Nov-20 09:46 42.371764 -122.875672 203 1318ft 0kts
12-Nov-20 09:47 42.371764 -122.875672 203 1318ft 0kts
12-Nov-20 09:48 42.371593 -122.875975 301 1318ft 4kts
12-Nov-20 09:49 42.372021 -122.875377 105 1318ft 11kts
12-Nov-20 09:50 42.374644 -122.874724 338 1314ft 23kts
12-Nov-20 09:51 42.380682 -122.877880 338 1309ft 21kts
12-Nov-20 09:52 42.385853 -122.880209 70 1298ft 0kts
12-Nov-20 09:53 42.385855 -122.880202 70 1298ft 0kts
12-Nov-20 09:54 42.385855 -122.880202 70 1298ft 0kts
12-Nov-20 09:55 42.385288 -122.878674 159 1302ft 2kts
12-Nov-20 09:56 42.381852 -122.876844 159 1309ft 98kts
12-Nov-20 09:57 42.347086 -122.875582 237 3301ft 154kts
12-Nov-20 09:58 42.368530 -122.908087 34 5573ft 166kts
12-Nov-20 09:59 42.393525 -122.860332 92 7990ft 168kts
12-Nov-20 10:00 42.399152 -122.796252 80 10312ft 178kts
12-Nov-20 10:01 42.406115 -122.724728 98 12256ft 207kts
12-Nov-20 10:02 42.381458 -122.653636 124 14354ft 214kts
12-Nov-20 10:04 42.328880 -122.644182 227 15042ft 239kts
12-Nov-20 10:05 42.277906 -122.714419 236 15005ft 273kts
12-Nov-20 10:06 42.209004 -122.755771 176 14994ft 301kts
12-Nov-20 10:07 42.129679 -122.713590 161 15001ft 309kts
12-Nov-20 10:08 42.050234 -122.668867 161 14999ft 310kts
12-Nov-20 10:09 41.985039 -122.632079 161 14991ft 311kts
12-Nov-20 10:14 41.567806 -122.454140 175 14983ft 307kts
12-Nov-20 10:15 41.483418 -122.436900 175 14982ft 306kts
12-Nov-20 10:16 41.399711 -122.419822 175 14971ft 305kts
12-Nov-20 10:17 41.316039 -122.402779 175 14939ft 305kts
12-Nov-20 10:18 41.232507 -122.385847 175 14610ft 302kts
12-Nov-20 10:19 41.151414 -122.369501 175 13107ft 290kts
12-Nov-20 10:20 41.071934 -122.353571 174 11636ft 290kts
12-Nov-20 10:21 40.992971 -122.337957 174 10139ft 283kts
12-Nov-20 10:21 40.929817 -122.325060 173 8858ft 269kts
12-Nov-20 10:22 40.857975 -122.308255 166 7489ft 257kts
12-Nov-20 10:24 40.777301 -122.290328 180 5811ft 258kts
12-Nov-20 10:24 40.717621 -122.294746 181 4376ft 254kts
12-Nov-20 10:25 40.650407 -122.293992 184 2986ft 225kts
12-Nov-20 10:26 40.597569 -122.295225 179 2317ft 154kts
12-Nov-20 10:27 40.557573 -122.294636 179 1215ft 138kts
12-Nov-20 10:28 40.524737 -122.294812 181 572ft 106kts
12-Nov-20 10:29 40.508620 -122.294865 181 462ft 21kts
12-Nov-20 10:30 40.508302 -122.295970 295 462ft 0kts
12-Nov-20 10:31 40.508392 -122.298634 359 462ft 17kts
12-Nov-20 10:32 40.509615 -122.298077 2 462ft 0kts
12-Nov-20 10:33 40.509615 -122.298077 2 462ft 0kts
12-Nov-20 10:34 40.509615 -122.298077 2 462ft 0kts
12-Nov-20 10:35 40.509615 -122.298077 2 462ft 0kts
12-Nov-20 10:36 40.509615 -122.298077 2 462ft 0kts

Navigation Log

Ident Type
Flight plan parsing failed, navigation log unavailable